Time;durP1;ratioP1;P1;durP2;ratioP2;P2;SDS_P1;SDS_P2;PMS_P1;PMS_P2;Temp;Humidity;BMP_temperature;BMP_pressure;BME280_temperature;BME280_humidity;BME280_pressure;Samples;Min_cycle;Max_cycle;Signal;HPM_P1;HPM_P2
2023/08/29 00:00:20;;;;;;;4.10;2.20;;;14.60;99.90;;;;;;5042025;28;20087;-84
2023/08/29 00:02:48;;;;;;;3.90;2.38;;;14.00;99.90;;;;;;5045220;28;20473;-84
2023/08/29 00:05:14;;;;;;;4.13;2.40;;;13.60;99.90;;;;;;5046936;28;20036;-84
2023/08/29 00:07:41;;;;;;;3.08;2.53;;;15.00;99.90;;;;;;5047226;28;20037;-83
2023/08/29 00:10:07;;;;;;;3.08;2.25;;;13.50;99.90;;;;;;5045210;28;20045;-85
2023/08/29 00:12:34;;;;;;;3.55;2.33;;;13.50;99.90;;;;;;5044024;28;20072;-83
2023/08/29 00:15:00;;;;;;;5.63;2.50;;;13.50;99.90;;;;;;5025929;28;20041;-85
2023/08/29 00:17:27;;;;;;;2.47;2.28;;;14.70;99.90;;;;;;5045220;28;20132;-85
2023/08/29 00:19:55;;;;;;;3.70;2.50;;;13.50;99.90;;;;;;5046173;28;20045;-85
2023/08/29 00:22:22;;;;;;;2.95;2.25;;;13.50;99.90;;;;;;5047051;28;20157;-86
2023/08/29 00:24:48;;;;;;;4.47;2.70;;;13.40;99.90;;;;;;5010146;28;20041;-87
2023/08/29 00:27:14;;;;;;;4.53;2.70;;;13.50;99.90;;;;;;5046281;28;20041;-89
2023/08/29 00:29:42;;;;;;;2.53;2.17;;;13.50;99.90;;;;;;5045814;28;20405;-83
2023/08/29 00:32:08;;;;;;;2.88;2.63;;;13.40;99.90;;;;;;5046079;28;20052;-84
2023/08/29 00:34:34;;;;;;;2.90;2.67;;;13.30;99.90;;;;;;5024326;28;20091;-84
2023/08/29 00:36:59;;;;;;;2.80;2.60;;;13.30;99.90;;;;;;5048482;28;20060;-83
2023/08/29 00:39:25;;;;;;;4.32;2.70;;;13.30;99.90;;;;;;5047619;28;20037;-84
2023/08/29 00:41:51;;;;;;;4.70;2.70;;;13.20;99.90;;;;;;5047953;28;20080;-87
2023/08/29 00:44:17;;;;;;;2.60;2.40;;;13.20;99.90;;;;;;5046295;28;20044;-89
2023/08/29 00:46:44;;;;;;;7.32;2.75;;;13.10;99.90;;;;;;5044137;28;21873;-84
2023/08/29 00:49:12;;;;;;;3.42;2.60;;;13.10;99.90;;;;;;5030886;28;20052;-85
2023/08/29 00:51:39;;;;;;;2.67;2.53;;;12.30;99.90;;;;;;5046539;28;20045;-83
2023/08/29 00:54:07;;;;;;;3.28;2.45;;;13.00;99.90;;;;;;5044004;28;20036;-86
2023/08/29 00:56:34;;;;;;;4.03;2.38;;;13.00;99.90;;;;;;5036281;28;20754;-85
2023/08/29 00:59:01;;;;;;;3.33;2.30;;;12.50;99.90;;;;;;5044532;28;20045;-88
2023/08/29 01:01:28;;;;;;;3.88;2.30;;;13.20;99.90;;;;;;5046772;28;20103;-82
2023/08/29 01:03:54;;;;;;;3.03;2.83;;;13.00;99.90;;;;;;5044026;28;20048;-88
2023/08/29 01:06:20;;;;;;;3.40;2.45;;;13.00;99.90;;;;;;5045114;28;20041;-87
2023/08/29 01:08:46;;;;;;;2.75;2.55;;;13.00;99.90;;;;;;5041240;28;20037;-83
2023/08/29 01:11:41;;;;;;;3.03;2.60;;;12.60;99.90;;;;;;5020344;28;20049;-85
2023/08/29 01:14:33;;;;;;;2.53;2.20;;;13.00;99.90;;;;;;5043504;28;20408;-82
2023/08/29 01:17:07;;;;;;;2.92;2.70;;;13.00;99.90;;;;;;5000518;28;20048;-85
2023/08/29 01:19:39;;;;;;;2.60;2.40;;;12.90;99.90;;;;;;5045197;28;20044;-87
2023/08/29 01:22:29;;;;;;;4.22;2.78;;;12.90;99.90;;;;;;5046403;28;20083;-86
2023/08/29 01:25:29;;;;;;;3.35;2.80;;;12.90;99.90;;;;;;5046404;28;20068;-91
2023/08/29 01:27:55;;;;;;;4.50;2.63;;;12.90;99.90;;;;;;5046661;28;20033;-86
2023/08/29 01:30:22;;;;;;;2.70;2.50;;;12.80;99.90;;;;;;5047486;28;20045;-88
2023/08/29 01:32:49;;;;;;;3.00;2.65;;;12.70;99.90;;;;;;5048639;28;20489;-85
2023/08/29 01:35:15;;;;;;;3.47;2.47;;;12.70;99.90;;;;;;5051974;28;20041;-86
2023/08/29 01:37:41;;;;;;;6.55;2.10;;;13.70;99.90;;;;;;5053096;28;20041;-82
2023/08/29 01:40:07;;;;;;;3.15;1.90;;;12.70;99.90;;;;;;5039948;28;20456;-88
2023/08/29 01:42:33;;;;;;;2.53;2.20;;;12.70;99.90;;;;;;5034289;28;20052;-86
2023/08/29 01:44:59;;;;;;;2.83;2.00;;;12.60;99.90;;;;;;5012504;28;20046;-84
2023/08/29 01:47:25;;;;;;;3.28;1.92;;;12.60;99.90;;;;;;5039039;28;20491;-82
2023/08/29 01:49:51;;;;;;;5.65;2.00;;;12.50;99.90;;;;;;5033082;28;20140;-91
2023/08/29 01:52:17;;;;;;;2.30;2.20;;;12.50;99.90;;;;;;5021076;28;20044;-86
2023/08/29 01:54:43;;;;;;;3.55;2.28;;;12.50;99.90;;;;;;5054754;28;20090;-84
2023/08/29 01:57:11;;;;;;;2.38;1.88;;;12.50;99.90;;;;;;5052322;28;20041;-86
2023/08/29 01:59:37;;;;;;;3.80;2.40;;;12.50;99.90;;;;;;5052259;28;20193;-90
2023/08/29 02:02:03;;;;;;;2.35;1.73;;;12.40;99.90;;;;;;5051626;28;20043;-88
2023/08/29 02:04:29;;;;;;;4.50;1.95;;;12.40;99.90;;;;;;5052856;28;20128;-83
2023/08/29 02:06:55;;;;;;;2.45;1.67;;;12.40;99.90;;;;;;5051764;28;20032;-86
2023/08/29 02:09:20;;;;;;;6.28;2.20;;;12.30;99.90;;;;;;5034530;28;20041;-81
2023/08/29 02:11:46;;;;;;;2.20;2.00;;;12.40;99.90;;;;;;5051534;28;20048;-88
2023/08/29 02:14:13;;;;;;;3.28;1.85;;;12.30;99.90;;;;;;5033298;28;20051;-82
2023/08/29 02:16:38;;;;;;;7.07;2.30;;;13.50;99.90;;;;;;5036224;28;20040;-83
2023/08/29 02:19:04;;;;;;;2.65;2.00;;;12.90;99.90;;;;;;5019732;28;20041;-82
2023/08/29 02:21:30;;;;;;;2.40;2.30;;;12.30;99.90;;;;;;5039940;28;20037;-81
2023/08/29 02:23:57;;;;;;;1.88;1.77;;;12.30;99.90;;;;;;5029328;28;20485;-84
2023/08/29 02:26:23;;;;;;;2.85;2.28;;;12.30;99.90;;;;;;5046010;28;20052;-86
2023/08/29 02:28:53;;;;;;;2.65;2.20;;;12.20;99.90;;;;;;5027432;28;20417;-83
2023/08/29 02:31:19;;;;;;;2.78;2.55;;;12.20;99.90;;;;;;5018938;28;20133;-82
2023/08/29 02:33:45;;;;;;;2.35;2.25;;;13.30;99.90;;;;;;5004851;28;20073;-82
2023/08/29 02:36:10;;;;;;;2.08;1.98;;;13.30;99.90;;;;;;5011042;28;20080;-81
2023/08/29 02:38:36;;;;;;;3.30;2.33;;;12.10;99.90;;;;;;5008601;28;20153;-82
2023/08/29 02:41:02;;;;;;;3.03;2.38;;;12.10;99.90;;;;;;5006873;28;20046;-83
2023/08/29 02:43:28;;;;;;;2.38;2.15;;;12.10;99.90;;;;;;5005759;28;20042;-81
2023/08/29 02:45:54;;;;;;;1.98;1.88;;;12.10;99.90;;;;;;5007097;28;20053;-81
2023/08/29 02:48:19;;;;;;;2.40;2.20;;;12.00;99.90;;;;;;5005970;28;20049;-85
2023/08/29 02:50:48;;;;;;;6.68;2.20;;;13.70;99.90;;;;;;5024922;28;20065;-83
2023/08/29 02:53:20;;;;;;;2.60;1.88;;;12.10;99.90;;;;;;5019047;28;20057;-85
2023/08/29 02:55:48;;;;;;;3.05;2.10;;;12.10;99.90;;;;;;5013074;28;20451;-80
2023/08/29 02:58:14;;;;;;;4.25;1.95;;;12.00;99.90;;;;;;5011537;28;20508;-81
2023/08/29 03:00:40;;;;;;;3.20;2.53;;;13.50;99.90;;;;;;5011823;28;20095;-86
2023/08/29 03:03:06;;;;;;;2.85;2.40;;;12.00;99.90;;;;;;5003641;28;20046;-89
2023/08/29 03:05:32;;;;;;;2.47;2.28;;;12.00;99.90;;;;;;5011338;28;20406;-86
2023/08/29 03:08:00;;;;;;;2.47;2.38;;;11.90;99.90;;;;;;5012967;28;20046;-93
2023/08/29 03:10:26;;;;;;;2.33;1.92;;;11.90;99.90;;;;;;5012059;28;20049;-94
2023/08/29 03:12:51;;;;;;;1.92;1.83;;;11.80;99.90;;;;;;5012062;28;20038;-87
2023/08/29 03:15:20;;;;;;;2.25;2.05;;;11.80;99.90;;;;;;5012858;28;20464;-86
2023/08/29 03:17:47;;;;;;;3.25;2.20;;;11.80;99.90;;;;;;5011777;28;20046;-83
2023/08/29 03:20:13;;;;;;;5.60;2.22;;;11.70;99.90;;;;;;5012944;28;20105;-88
2023/08/29 03:22:38;;;;;;;1.95;1.83;;;11.80;99.90;;;;;;5002332;28;20081;-82
2023/08/29 03:25:05;;;;;;;3.33;1.83;;;13.10;99.90;;;;;;4988146;28;20034;-87
2023/08/29 03:27:31;;;;;;;2.15;2.03;;;11.80;99.90;;;;;;5007688;28;20041;-81
2023/08/29 03:29:58;;;;;;;1.65;1.55;;;11.80;99.90;;;;;;5006241;28;20047;-83
2023/08/29 03:32:23;;;;;;;1.70;1.60;;;11.80;99.90;;;;;;5052011;28;20573;-81
2023/08/29 03:34:54;;;;;;;1.77;1.67;;;13.00;99.90;;;;;;5015849;28;20060;-83
2023/08/29 03:37:19;;;;;;;8.90;2.17;;;11.80;99.90;;;;;;5043724;28;20055;-83
2023/08/29 03:39:45;;;;;;;2.15;1.50;;;11.70;99.90;;;;;;5049252;28;20045;-81
2023/08/29 03:42:11;;;;;;;2.20;2.10;;;11.60;99.90;;;;;;5053481;28;20073;-87
2023/08/29 03:44:36;;;;;;;3.00;2.00;;;13.30;99.90;;;;;;5047912;28;20477;-85
2023/08/29 03:47:05;;;;;;;2.90;1.88;;;12.80;99.90;;;;;;5055046;28;20096;-83
2023/08/29 03:49:31;;;;;;;2.22;2.00;;;11.70;99.90;;;;;;5034174;28;20041;-80
2023/08/29 03:51:57;;;;;;;2.05;1.95;;;12.90;99.90;;;;;;5051687;28;20132;-88
2023/08/29 03:54:22;;;;;;;1.80;1.70;;;11.60;99.90;;;;;;5053686;28;20037;-82
2023/08/29 03:56:48;;;;;;;2.47;1.90;;;11.50;99.90;;;;;;5035441;28;20090;-84
2023/08/29 03:59:14;;;;;;;2.15;1.92;;;11.60;99.90;;;;;;5046785;28;20405;-90
2023/08/29 04:01:40;;;;;;;2.30;2.10;;;11.50;99.90;;;;;;5055123;28;20059;-87
2023/08/29 04:04:06;;;;;;;2.35;1.65;;;11.50;99.90;;;;;;5053937;28;20045;-83
2023/08/29 04:06:34;;;;;;;2.28;2.17;;;11.50;99.90;;;;;;5051962;28;20060;-81
2023/08/29 04:09:01;;;;;;;2.40;2.20;;;12.60;99.90;;;;;;5055202;28;20443;-86
2023/08/29 04:11:26;;;;;;;1.88;1.77;;;12.90;99.90;;;;;;5040830;28;20040;-88
2023/08/29 04:13:53;;;;;;;1.95;1.83;;;11.50;99.90;;;;;;5051739;28;20480;-90
2023/08/29 04:16:18;;;;;;;1.73;1.63;;;11.40;99.90;;;;;;5053079;28;20037;-83
2023/08/29 04:18:44;;;;;;;2.20;2.10;;;11.50;99.90;;;;;;5055167;28;20515;-81
2023/08/29 04:21:10;;;;;;;1.63;1.52;;;12.60;99.90;;;;;;5050719;28;20047;-86
2023/08/29 04:23:36;;;;;;;1.60;1.50;;;11.50;99.90;;;;;;5049142;28;20049;-84
2023/08/29 04:26:03;;;;;;;2.47;2.28;;;11.50;99.90;;;;;;5035856;28;20045;-84
2023/08/29 04:28:30;;;;;;;1.67;1.58;;;11.40;99.90;;;;;;5051546;28;20049;-88
2023/08/29 04:30:56;;;;;;;4.05;1.60;;;12.60;99.90;;;;;;5047787;28;20436;-84
2023/08/29 04:33:22;;;;;;;2.47;2.05;;;11.40;99.90;;;;;;5048344;28;20382;-86
2023/08/29 04:35:51;;;;;;;4.60;2.10;;;11.40;99.90;;;;;;5053410;28;20051;-85
2023/08/29 04:38:17;;;;;;;3.97;2.25;;;11.30;99.90;;;;;;5048132;28;20041;-80
2023/08/29 04:40:45;;;;;;;2.22;2.13;;;11.30;99.90;;;;;;5046082;28;20041;-80
2023/08/29 04:43:11;;;;;;;2.13;2.03;;;11.30;99.90;;;;;;5046731;28;20044;-83
2023/08/29 04:45:38;;;;;;;1.70;1.60;;;11.30;99.90;;;;;;5043600;28;20509;-87
2023/08/29 04:48:04;;;;;;;2.03;1.92;;;11.30;99.90;;;;;;5047730;28;20037;-83
2023/08/29 04:50:30;;;;;;;2.22;2.10;;;11.30;99.90;;;;;;5026995;28;20067;-85
2023/08/29 04:52:56;;;;;;;3.03;1.88;;;11.30;99.90;;;;;;5044773;28;20048;-93
2023/08/29 04:55:21;;;;;;;3.40;1.90;;;11.20;99.90;;;;;;5048697;28;20037;-82
2023/08/29 04:57:47;;;;;;;3.25;1.83;;;11.20;99.90;;;;;;5051037;28;20046;-83
2023/08/29 05:00:13;;;;;;;2.28;2.08;;;11.20;99.90;;;;;;5034250;28;20045;-84
2023/08/29 05:02:39;;;;;;;2.78;2.50;;;11.20;99.90;;;;;;5031423;28;20057;-84
2023/08/29 05:05:08;;;;;;;4.80;2.08;;;11.90;99.90;;;;;;5052424;28;20033;-85
2023/08/29 05:07:34;;;;;;;2.47;1.85;;;11.20;99.90;;;;;;5052425;28;20041;-83
2023/08/29 05:10:00;;;;;;;2.40;2.20;;;12.80;99.90;;;;;;5053454;28;20109;-82
2023/08/29 05:12:27;;;;;;;2.30;2.10;;;11.20;99.90;;;;;;5035424;28;20076;-85
2023/08/29 05:14:55;;;;;;;2.38;1.75;;;11.20;99.90;;;;;;5040748;28;20031;-81
2023/08/29 05:17:25;;;;;;;1.98;1.80;;;11.10;99.90;;;;;;5050724;28;20040;-81
2023/08/29 05:19:56;;;;;;;2.75;1.58;;;11.20;99.90;;;;;;5059497;28;20079;-81
2023/08/29 05:22:22;;;;;;;2.28;1.80;;;12.20;99.90;;;;;;5057154;28;20041;-84
2023/08/29 05:24:47;;;;;;;2.97;2.30;;;11.10;99.90;;;;;;5048511;28;20492;-80
2023/08/29 05:27:14;;;;;;;1.92;1.83;;;11.20;99.90;;;;;;5055674;28;20084;-82
2023/08/29 05:29:41;;;;;;;1.77;1.67;;;11.70;99.90;;;;;;5059272;28;20044;-82
2023/08/29 05:32:08;;;;;;;1.73;1.63;;;11.20;99.90;;;;;;5058266;28;20057;-82
2023/08/29 05:34:33;;;;;;;2.30;1.30;;;11.20;99.90;;;;;;5025721;28;20053;-81
2023/08/29 05:36:59;;;;;;;3.72;1.80;;;11.20;99.90;;;;;;5044713;28;20041;-83
2023/08/29 05:39:24;;;;;;;1.55;1.45;;;13.10;99.90;;;;;;5060552;28;20071;-82
2023/08/29 05:41:50;;;;;;;2.33;1.65;;;11.30;99.90;;;;;;5053192;28;20045;-82
2023/08/29 05:44:23;;;;;;;2.05;1.83;;;11.30;99.90;;;;;;5037367;28;20088;-80
2023/08/29 05:46:54;;;;;;;2.00;1.77;;;11.30;99.90;;;;;;5047122;28;20105;-81
2023/08/29 05:49:20;;;;;;;4.20;1.63;;;10.00;99.90;;;;;;5055556;28;20056;-82
2023/08/29 05:51:46;;;;;;;1.95;1.85;;;11.20;99.90;;;;;;5036914;28;20048;-81
2023/08/29 05:54:11;;;;;;;3.03;1.73;;;12.60;99.90;;;;;;5038781;28;20041;-88
2023/08/29 05:56:37;;;;;;;3.47;1.88;;;11.70;99.90;;;;;;5046966;28;20053;-88
2023/08/29 05:59:04;;;;;;;5.25;2.70;;;13.20;99.90;;;;;;5041359;28;20046;-88
2023/08/29 06:01:31;;;;;;;2.38;2.28;;;12.40;99.90;;;;;;5046157;28;20123;-83
2023/08/29 06:03:58;;;;;;;6.63;2.95;;;11.40;99.90;;;;;;5055349;28;20461;-85
2023/08/29 06:06:25;;;;;;;2.92;2.53;;;13.20;99.90;;;;;;5033984;28;20056;-83
2023/08/29 06:08:52;;;;;;;4.65;2.90;;;11.50;99.90;;;;;;5056362;28;20080;-83
2023/08/29 06:11:17;;;;;;;4.78;2.65;;;11.60;99.90;;;;;;5050594;28;20060;-82
2023/08/29 06:13:43;;;;;;;3.08;2.72;;;12.20;99.90;;;;;;5048484;28;20432;-83
2023/08/29 06:16:09;;;;;;;2.22;2.10;;;11.70;99.90;;;;;;5044580;28;20069;-85
2023/08/29 06:18:34;;;;;;;2.80;2.53;;;11.80;99.90;;;;;;5047647;28;20148;-81
2023/08/29 06:21:00;;;;;;;2.72;2.53;;;11.90;99.90;;;;;;5046598;28;20129;-87
2023/08/29 06:23:26;;;;;;;3.10;2.88;;;11.90;99.90;;;;;;5047417;28;20095;-81
2023/08/29 06:25:52;;;;;;;6.82;2.80;;;12.50;99.90;;;;;;5053645;28;20045;-81
2023/08/29 06:28:17;;;;;;;4.40;2.63;;;12.00;99.90;;;;;;5057412;28;20536;-82
2023/08/29 06:30:44;;;;;;;3.75;2.60;;;12.10;99.90;;;;;;5055412;28;20095;-82
2023/08/29 06:33:10;;;;;;;4.65;2.80;;;12.20;99.90;;;;;;5040543;28;20429;-82
2023/08/29 06:35:38;;;;;;;3.53;3.00;;;12.30;99.90;;;;;;5056737;28;20037;-83
2023/08/29 06:38:04;;;;;;;3.42;3.13;;;12.50;99.90;;;;;;5061211;28;20052;-84
2023/08/29 06:40:30;;;;;;;2.78;2.47;;;12.40;99.90;;;;;;5040175;28;20041;-88
2023/08/29 06:42:55;;;;;;;3.80;3.35;;;12.50;99.90;;;;;;5034562;28;20389;-82
2023/08/29 06:45:21;;;;;;;3.80;2.80;;;12.60;99.90;;;;;;5056374;28;20034;-83
2023/08/29 06:47:47;;;;;;;4.60;2.95;;;12.70;99.90;;;;;;5052036;28;20041;-82
2023/08/29 06:50:12;;;;;;;3.28;2.75;;;12.70;99.90;;;;;;5054694;28;20063;-81
2023/08/29 06:52:38;;;;;;;2.53;2.33;;;12.80;99.90;;;;;;5049576;28;20082;-84
2023/08/29 06:55:04;;;;;;;2.83;2.63;;;13.20;99.90;;;;;;5047382;28;20033;-81
2023/08/29 06:57:30;;;;;;;4.68;2.67;;;13.10;99.90;;;;;;5043704;28;20151;-81
2023/08/29 06:59:55;;;;;;;3.65;2.35;;;13.20;99.90;;;;;;4345977;28;10000700;-82
2023/08/29 07:02:21;;;;;;;2.67;2.47;;;13.20;99.90;;;;;;5046582;28;20041;-80
2023/08/29 07:04:47;;;;;;;4.22;2.03;;;13.30;99.90;;;;;;5042089;28;20431;-82
2023/08/29 07:07:13;;;;;;;2.03;1.90;;;13.40;99.90;;;;;;5045368;28;20044;-82
2023/08/29 07:09:38;;;;;;;2.42;2.20;;;13.50;99.90;;;;;;5042941;28;20531;-82
2023/08/29 07:12:04;;;;;;;3.70;2.83;;;14.60;99.90;;;;;;5040132;28;20071;-80
2023/08/29 07:14:31;;;;;;;5.53;2.65;;;13.70;99.90;;;;;;5044692;28;20041;-84
2023/08/29 07:16:56;;;;;;;5.18;2.35;;;13.80;99.90;;;;;;5049157;28;20499;-85
2023/08/29 07:19:22;;;;;;;2.35;2.10;;;13.90;99.90;;;;;;5037376;28;20037;-86
2023/08/29 07:21:48;;;;;;;2.42;1.92;;;14.00;99.90;;;;;;5029881;28;20066;-85
2023/08/29 07:24:13;;;;;;;3.03;2.67;;;15.40;99.90;;;;;;5009509;28;20061;-80
2023/08/29 07:26:39;;;;;;;3.63;2.13;;;14.10;99.90;;;;;;5049402;28;20048;-84
2023/08/29 07:29:05;;;;;;;3.58;2.38;;;14.20;99.90;;;;;;5048086;28;20433;-82
2023/08/29 07:31:30;;;;;;;4.63;2.25;;;14.20;99.90;;;;;;5049509;28;20060;-81
2023/08/29 07:33:56;;;;;;;2.38;2.17;;;14.30;99.90;;;;;;5046581;28;20049;-85
2023/08/29 07:36:22;;;;;;;5.07;2.33;;;14.40;99.90;;;;;;5049257;28;20041;-83
2023/08/29 07:38:48;;;;;;;4.70;2.15;;;15.60;99.90;;;;;;5046044;28;20060;-79
2023/08/29 07:41:14;;;;;;;2.28;2.08;;;15.20;99.90;;;;;;5050346;28;20041;-85
2023/08/29 07:43:40;;;;;;;2.00;1.80;;;14.60;99.90;;;;;;5045999;28;20080;-85
2023/08/29 07:46:08;;;;;;;3.20;2.05;;;14.70;99.90;;;;;;5048349;28;20531;-85
2023/08/29 07:48:34;;;;;;;5.18;1.83;;;14.80;99.90;;;;;;5044901;28;20041;-84
2023/08/29 07:51:00;;;;;;;2.50;2.30;;;14.00;99.90;;;;;;5048359;28;20041;-83
2023/08/29 07:53:28;;;;;;;2.15;2.00;;;14.90;99.90;;;;;;5030790;28;20068;-81
2023/08/29 07:55:54;;;;;;;3.03;2.10;;;15.50;99.90;;;;;;5048918;28;20118;-83
2023/08/29 07:58:20;;;;;;;4.28;1.95;;;15.00;99.90;;;;;;5050424;28;20037;-85
2023/08/29 08:00:45;;;;;;;2.70;1.45;;;15.10;99.90;;;;;;5040196;28;20041;-80
2023/08/29 08:03:11;;;;;;;2.33;1.52;;;15.10;99.90;;;;;;5050262;28;20045;-84
2023/08/29 08:05:37;;;;;;;2.80;2.08;;;15.10;99.90;;;;;;5043873;28;20056;-84
2023/08/29 08:08:04;;;;;;;2.08;1.98;;;15.20;99.90;;;;;;5049317;28;20067;-83
2023/08/29 08:10:30;;;;;;;2.45;1.85;;;15.30;99.90;;;;;;5047138;28;20037;-85
2023/08/29 08:12:56;;;;;;;2.92;1.95;;;15.30;99.90;;;;;;5048145;28;20407;-84
2023/08/29 08:15:21;;;;;;;1.98;1.60;;;15.30;99.90;;;;;;5047041;28;20033;-85
2023/08/29 08:17:47;;;;;;;2.22;1.75;;;15.40;99.90;;;;;;5030240;28;20071;-84
2023/08/29 08:20:13;;;;;;;2.08;1.90;;;14.90;99.90;;;;;;5048140;28;20499;-86
2023/08/29 08:22:41;;;;;;;3.53;1.75;;;15.50;99.90;;;;;;5048977;28;20045;-86
2023/08/29 08:25:09;;;;;;;2.25;1.30;;;15.50;99.90;;;;;;5032140;28;21578;-83
2023/08/29 08:27:34;;;;;;;3.92;1.27;;;15.50;99.90;;;;;;5051397;28;20485;-82
2023/08/29 08:30:01;;;;;;;1.80;1.27;;;15.60;99.90;;;;;;5006270;28;20040;-82
2023/08/29 08:32:27;;;;;;;1.75;1.70;;;15.60;99.90;;;;;;5029551;28;20647;-83
2023/08/29 08:34:55;;;;;;;4.05;1.90;;;15.60;99.90;;;;;;5031879;28;20481;-82
2023/08/29 08:37:21;;;;;;;4.00;1.75;;;15.60;99.90;;;;;;4338570;28;10000695;-84
2023/08/29 08:39:47;;;;;;;2.83;1.23;;;15.70;99.90;;;;;;5034708;28;20516;-83
2023/08/29 08:42:14;;;;;;;1.20;1.13;;;15.70;99.90;;;;;;5020284;28;20029;-82
2023/08/29 08:44:41;;;;;;;2.60;1.30;;;15.70;99.90;;;;;;5038842;28;20053;-82
2023/08/29 08:47:07;;;;;;;2.20;1.40;;;15.80;99.90;;;;;;5046184;28;20563;-82
2023/08/29 08:49:33;;;;;;;1.85;1.27;;;15.80;99.90;;;;;;5042378;28;20041;-82
2023/08/29 08:52:00;;;;;;;2.75;1.02;;;14.60;99.90;;;;;;5009852;28;20080;-82
2023/08/29 08:54:26;;;;;;;1.25;1.20;;;15.90;99.90;;;;;;5029855;28;20037;-83
2023/08/29 08:56:57;;;;;;;5.13;1.60;;;15.90;99.90;;;;;;5030118;28;20120;-82
2023/08/29 08:59:24;;;;;;;2.33;1.40;;;16.00;99.90;;;;;;5050012;28;20037;-85
2023/08/29 09:01:50;;;;;;;2.85;1.38;;;16.00;99.90;;;;;;5045760;28;20064;-84
2023/08/29 09:04:15;;;;;;;2.85;1.55;;;16.10;99.90;;;;;;5032109;28;20036;-83
2023/08/29 09:06:41;;;;;;;3.35;1.63;;;16.10;99.90;;;;;;5049491;28;20485;-84
2023/08/29 09:09:22;;;;;;;2.80;1.52;;;16.10;99.90;;;;;;5047379;28;20049;-84
2023/08/29 09:11:56;;;;;;;1.50;1.40;;;16.20;99.90;;;;;;5023751;28;20120;-84
2023/08/29 09:14:23;;;;;;;2.95;1.92;;;16.20;99.90;;;;;;5046283;28;20397;-84
2023/08/29 09:17:08;;;;;;;3.40;2.05;;;16.30;99.90;;;;;;5048501;28;20045;-82
2023/08/29 09:19:34;;;;;;;4.72;1.92;;;17.20;99.90;;;;;;5041441;28;20037;-82
2023/08/29 09:22:00;;;;;;;1.60;1.50;;;16.40;99.90;;;;;;5040581;28;20091;-83
2023/08/29 09:24:36;;;;;;;3.83;1.80;;;16.40;99.90;;;;;;5046136;28;20044;-82
2023/08/29 09:27:07;;;;;;;2.47;2.28;;;16.60;99.90;;;;;;5028245;28;20044;-82
2023/08/29 09:29:33;;;;;;;3.50;1.92;;;16.50;99.90;;;;;;5048411;28;20044;-83
2023/08/29 09:32:00;;;;;;;4.30;2.00;;;16.50;99.90;;;;;;5021510;28;20057;-84
2023/08/29 09:34:29;;;;;;;2.95;1.70;;;16.60;99.90;;;;;;5048652;28;20041;-82
2023/08/29 09:36:58;;;;;;;5.07;1.50;;;16.60;99.90;;;;;;5026357;28;20037;-89
2023/08/29 09:39:24;;;;;;;4.10;2.22;;;16.60;99.90;;;;;;5031765;28;20116;-84
2023/08/29 09:42:05;;;;;;;1.65;1.33;;;16.60;99.90;;;;;;5043498;28;20041;-83
2023/08/29 09:44:36;;;;;;;2.53;1.30;;;16.70;99.90;;;;;;5035469;28;20044;-83
2023/08/29 09:47:03;;;;;;;3.85;1.50;;;16.70;99.90;;;;;;5034022;28;20044;-83
2023/08/29 09:49:49;;;;;;;1.75;1.65;;;16.70;99.90;;;;;;5035257;28;20548;-83
2023/08/29 09:52:16;;;;;;;2.80;1.45;;;16.70;99.90;;;;;;5039595;28;20371;-84
2023/08/29 09:54:48;;;;;;;4.30;3.90;;;16.80;99.90;;;;;;5045920;28;20142;-83
2023/08/29 09:57:15;;;;;;;4.30;2.58;;;16.80;99.90;;;;;;5041085;28;20042;-83
2023/08/29 09:59:43;;;;;;;2.35;1.80;;;16.90;99.90;;;;;;5040292;28;20080;-83
2023/08/29 10:02:13;;;;;;;2.50;1.83;;;16.90;99.90;;;;;;5042553;28;20033;-83
2023/08/29 10:04:45;;;;;;;2.72;1.73;;;16.90;99.90;;;;;;5044000;28;20053;-83
2023/08/29 10:07:39;;;;;;;2.47;1.90;;;17.00;99.90;;;;;;5049540;28;20041;-83
2023/08/29 10:10:08;;;;;;;5.63;1.80;;;17.00;99.90;;;;;;5042961;28;20544;-83
2023/08/29 10:12:34;;;;;;;1.42;1.40;;;17.10;99.90;;;;;;5043180;28;20810;-84
2023/08/29 10:15:01;;;;;;;1.85;1.70;;;17.10;99.90;;;;;;5044751;28;20437;-82
2023/08/29 10:17:26;;;;;;;3.25;1.63;;;17.10;99.90;;;;;;5049387;28;20033;-82
2023/08/29 10:19:59;;;;;;;1.83;1.50;;;16.50;99.90;;;;;;5050007;28;20082;-83
2023/08/29 10:22:28;;;;;;;2.30;2.10;;;17.20;99.90;;;;;;5036348;28;20128;-83
2023/08/29 10:24:55;;;;;;;5.03;1.85;;;17.30;99.90;;;;;;5044678;28;20035;-84
2023/08/29 10:27:21;;;;;;;4.05;1.70;;;17.30;99.90;;;;;;5034669;28;20112;-84
2023/08/29 10:29:46;;;;;;;3.47;1.48;;;17.10;99.90;;;;;;5034331;28;20572;-84
2023/08/29 10:32:12;;;;;;;2.00;1.20;;;17.40;99.90;;;;;;5053420;28;20057;-84
2023/08/29 10:34:40;;;;;;;1.92;1.65;;;17.80;99.90;;;;;;5054703;28;20033;-83
2023/08/29 10:37:15;;;;;;;1.40;1.30;;;17.50;99.90;;;;;;5043092;28;20128;-84
2023/08/29 10:39:42;;;;;;;4.38;1.52;;;17.50;99.90;;;;;;5033528;28;20041;-84
2023/08/29 10:42:08;;;;;;;2.25;1.55;;;17.60;99.90;;;;;;5041912;28;20456;-83
2023/08/29 10:44:43;;;;;;;1.48;1.15;;;17.60;99.90;;;;;;5042885;28;20072;-83
2023/08/29 10:47:35;;;;;;;1.30;1.20;;;17.60;99.90;;;;;;5030482;28;20115;-84
2023/08/29 10:50:02;;;;;;;2.58;1.10;;;17.60;99.90;;;;;;5042680;28;20045;-83
2023/08/29 10:52:41;;;;;;;1.35;1.10;;;17.70;99.90;;;;;;5042821;28;20053;-84
2023/08/29 10:55:25;;;;;;;1.38;0.90;;;17.80;99.90;;;;;;5031978;28;20094;-84
2023/08/29 10:57:51;;;;;;;1.20;0.70;;;17.90;99.90;;;;;;5032923;28;20147;-83
2023/08/29 11:00:37;;;;;;;1.60;0.85;;;17.90;99.90;;;;;;5033730;28;20037;-84
2023/08/29 11:03:02;;;;;;;3.90;0.95;;;17.90;99.90;;;;;;5041876;28;20485;-84
2023/08/29 11:05:28;;;;;;;3.28;0.85;;;17.90;99.90;;;;;;5030188;28;20038;-84
2023/08/29 11:08:21;;;;;;;2.25;0.93;;;18.00;99.90;;;;;;5045953;28;20110;-84
2023/08/29 11:11:11;;;;;;;1.10;0.80;;;18.00;99.90;;;;;;5050008;28;20512;-83
2023/08/29 11:13:59;;;;;;;1.60;1.08;;;18.00;99.90;;;;;;5042322;28;20501;-84
2023/08/29 11:16:35;;;;;;;3.15;0.90;;;18.10;99.90;;;;;;5049516;28;20044;-86
2023/08/29 11:19:04;;;;;;;2.45;1.10;;;18.00;99.90;;;;;;5043877;28;20037;-85
2023/08/29 11:21:30;;;;;;;1.63;1.15;;;18.00;99.90;;;;;;5024813;28;20105;-84
2023/08/29 11:23:57;;;;;;;1.48;1.20;;;17.90;99.90;;;;;;5040952;28;20146;-86
2023/08/29 11:29:13;;;;;;;1.30;1.17;;;18.00;99.90;;;;;;5038241;28;20138;-85
2023/08/29 11:31:41;;;;;;;1.80;0.90;;;18.00;99.90;;;;;;5032276;28;20088;-86
2023/08/29 11:34:20;;;;;;;2.63;1.35;;;18.00;99.90;;;;;;5032415;28;20627;-84
2023/08/29 11:36:50;;;;;;;3.38;2.08;;;18.00;99.90;;;;;;5031234;28;20401;-86
2023/08/29 11:39:20;;;;;;;3.35;1.77;;;18.10;99.90;;;;;;5031729;28;20102;-84
2023/08/29 11:41:46;;;;;;;1.90;1.58;;;18.10;99.90;;;;;;5016009;28;20073;-85
2023/08/29 11:44:11;;;;;;;2.08;1.35;;;18.10;99.90;;;;;;5032367;28;20049;-85
2023/08/29 11:46:37;;;;;;;1.45;1.42;;;18.20;99.90;;;;;;5032479;28;20480;-85
2023/08/29 11:49:13;;;;;;;2.40;1.90;;;18.30;99.90;;;;;;5032380;28;20048;-85
2023/08/29 11:51:40;;;;;;;1.55;1.45;;;18.30;99.90;;;;;;5034066;28;20064;-86
2023/08/29 11:54:40;;;;;;;2.08;1.08;;;18.30;99.90;;;;;;5049410;28;20037;-85
2023/08/29 11:57:13;;;;;;;1.88;1.55;;;18.30;99.90;;;;;;5038434;28;20079;-86
2023/08/29 11:59:43;;;;;;;1.23;1.10;;;18.30;99.90;;;;;;5041188;28;20041;-84
2023/08/29 12:02:16;;;;;;;3.10;2.28;;;18.30;99.90;;;;;;5048453;28;20052;-83
2023/08/29 12:04:42;;;;;;;1.20;1.13;;;18.30;99.90;;;;;;4693552;28;10001629;-85
2023/08/29 12:07:16;;;;;;;2.28;1.70;;;18.30;99.90;;;;;;5050758;28;20386;-85
2023/08/29 12:09:44;;;;;;;2.45;1.67;;;18.30;99.90;;;;;;5031104;28;20037;-85
2023/08/29 12:12:31;;;;;;;2.28;2.10;;;18.30;99.90;;;;;;5051931;28;20041;-85
2023/08/29 12:14:57;;;;;;;2.38;2.17;;;18.30;99.90;;;;;;5035043;28;20060;-86
2023/08/29 12:17:39;;;;;;;2.50;2.30;;;18.30;99.90;;;;;;5059440;28;20380;-86
2023/08/29 12:20:12;;;;;;;1.80;1.70;;;18.30;99.90;;;;;;5037832;28;20077;-85
2023/08/29 12:22:39;;;;;;;2.00;1.60;;;18.30;99.90;;;;;;5043503;28;20052;-85
2023/08/29 12:25:47;;;;;;;;;;;;;;;;;;;;;
2023/08/29 12:28:13;;;;;;;2.33;2.13;;;18.30;99.90;;;;;;5048748;28;20071;-86
2023/08/29 12:30:39;;;;;;;2.38;1.95;;;18.20;99.90;;;;;;5044851;28;20650;-84
2023/08/29 12:33:05;;;;;;;2.50;1.95;;;18.30;99.90;;;;;;5049240;28;20391;-84
2023/08/29 12:35:31;;;;;;;1.80;1.70;;;18.30;99.90;;;;;;5025746;28;20071;-85
2023/08/29 12:37:57;;;;;;;2.20;2.08;;;18.20;99.90;;;;;;5016842;28;20105;-84
2023/08/29 12:40:22;;;;;;;2.45;1.90;;;18.30;99.90;;;;;;5046258;28;20382;-85
2023/08/29 12:42:51;;;;;;;2.70;1.63;;;18.20;99.90;;;;;;5045345;28;20041;-85
2023/08/29 12:45:18;;;;;;;1.70;1.20;;;18.30;99.90;;;;;;5040536;28;20133;-86
2023/08/29 12:47:47;;;;;;;1.17;1.00;;;18.30;99.90;;;;;;5038489;28;20045;-85
2023/08/29 12:50:13;;;;;;;4.50;1.50;;;18.30;99.90;;;;;;5035145;28;20389;-86
2023/08/29 12:52:39;;;;;;;1.05;0.95;;;18.40;99.90;;;;;;5031626;28;20519;-86
2023/08/29 12:55:05;;;;;;;2.60;1.30;;;18.50;99.90;;;;;;5042519;28;20045;-86